Pagina principală
METAR-TAF:

METAR-TAF

Aeroporturi :

Olympic Dam, Australia

Latitudine: 30-29-06S, longitudine: 136-52-36E, elevație: 105 m

Observații meteo curente

Raportul a fost făcut în urmă cu 1 oră și 16 de minute, la 00:00 UTC
Vânt 7 kt de la Nord
Temperatură 31°C
Umiditate 36%
Presiune 1014 hPa
Vizibilitate de 10 km sau mai mult

METAR: YOLD 250000Z AUTO 01007KT 9999 // NCD 31/14 Q1014

Ora: 11:46 (01:16 UTC)

Prognoză

Raportul a fost făcut în urmă cu 7 ore și 40 de minute, la 17:36 UTC
Prognoză valabilă de la 24 ora 19 UTC la 25 ora 08 UTC
Vânt 5 kt din direcții variabile
Vizibilitate de 10 km sau mai mult
nu există nori sub 1.500 m și nici cumulonimbus
De la 25 ora 0400 UTC
Vânt 12 kt de la Sud/Sud-vest
Vizibilitate de 10 km sau mai mult
nu există nori sub 1.500 m și nici cumulonimbus

TAF: YOLD 241736Z 2419/2508 VRB05KT CAVOK FM250400 20012KT CAVOK

Observații și prognoze meteo pentru peste 4.000 de aeroporturi (rapoarte METAR și TAF).

Stațiile disponibile sunt reprezentate pe hartă prin puncte galbene și roșii.

Țineți indicatorul mouse-ului pe punctul dorit pentru a vedea denumirea stației.

Apoi, faceți clic pentru a vedea observațiile și prognozele meteorologice.

Pentru a schimba harta: Pentru mărire, faceți clic pe butoanele verzi cu cruce neagră; pentru micșorare, pe butonul verde cu o liniuță; pentru hărți învecinate, pe săgețile verzi.


METAR-TAF: